createdAt,value
2023-01-20T00:02:17.659Z,-0.01
2023-01-20T00:05:19.309Z,-0.12
2023-01-20T00:08:21.205Z,-0.10
2023-01-20T00:11:23.334Z,-0.13
2023-01-20T00:14:27.705Z,-0.20
2023-01-20T00:17:29.605Z,-0.28
2023-01-20T00:20:31.247Z,-0.33
2023-01-20T00:23:33.677Z,-0.30
2023-01-20T00:26:35.327Z,-0.23
2023-01-20T00:29:38.266Z,-0.23
2023-01-20T00:32:44.723Z,-0.31
2023-01-20T00:35:46.812Z,-0.34
2023-01-20T00:38:49.509Z,-0.34
2023-01-20T00:41:51.223Z,-0.35
2023-01-20T00:44:54.296Z,-0.36
2023-01-20T00:47:55.907Z,-0.28
2023-01-20T00:50:57.700Z,-0.32
2023-01-20T00:53:59.453Z,-0.32
2023-01-20T00:57:01.062Z,-0.29
2023-01-20T01:00:05.124Z,-0.18
2023-01-20T01:03:06.902Z,-0.19
2023-01-20T01:06:10.619Z,-0.17
2023-01-20T01:09:12.236Z,-0.06
2023-01-20T01:12:13.806Z,-0.04
2023-01-20T01:15:16.926Z,-0.03
2023-01-20T01:18:18.706Z,-0.13
2023-01-20T01:21:21.241Z,-0.01
2023-01-20T01:24:22.976Z,-0.01
2023-01-20T01:27:24.559Z,-0.01
2023-01-20T01:30:27.717Z,0.02
2023-01-20T01:33:29.821Z,-0.04
2023-01-20T01:36:31.486Z,0.00
2023-01-20T01:39:33.240Z,-0.04
2023-01-20T01:42:35.108Z,-0.10
2023-01-20T01:45:38.487Z,-0.07
2023-01-20T01:48:44.103Z,-0.05
2023-01-20T01:51:50.572Z,-0.06
2023-01-20T01:54:53.116Z,-0.07
2023-01-20T01:57:56.059Z,-0.03
2023-01-20T02:01:00.250Z,-0.12
2023-01-20T02:04:07.319Z,-0.07
2023-01-20T02:07:11.987Z,-0.06
2023-01-20T02:10:14.842Z,-0.06
2023-01-20T02:13:16.880Z,-0.10
2023-01-20T02:16:34.961Z,-0.13
2023-01-20T02:20:02.876Z,-0.05
2023-01-20T02:23:12.282Z,-0.09
2023-01-20T02:26:40.558Z,-0.08
2023-01-20T02:30:09.214Z,0.03
2023-01-20T02:33:15.941Z,-0.02
2023-01-20T02:36:26.157Z,0.04
2023-01-20T02:39:31.575Z,0.01
2023-01-20T02:42:37.899Z,-0.01
2023-01-20T02:45:45.619Z,-0.03
2023-01-20T02:48:51.655Z,-0.07
2023-01-20T02:51:58.387Z,-0.07
2023-01-20T02:55:06.065Z,-0.03
2023-01-20T02:58:10.773Z,-0.02
2023-01-20T03:01:17.044Z,-0.06
2023-01-20T03:04:25.216Z,-0.09
2023-01-20T03:07:30.176Z,-0.03
2023-01-20T03:10:35.776Z,-0.03
2023-01-20T03:13:43.218Z,-0.07
2023-01-20T03:16:48.184Z,-0.14
2023-01-20T03:19:51.551Z,-0.21
2023-01-20T03:22:53.276Z,-0.20
2023-01-20T03:25:56.507Z,-0.23
2023-01-20T03:28:59.139Z,-0.27
2023-01-20T03:32:03.695Z,-0.28
2023-01-20T03:35:07.410Z,-0.28
2023-01-20T03:38:10.089Z,-0.31
2023-01-20T03:41:20.146Z,-0.29
2023-01-20T03:44:28.808Z,-0.32
2023-01-20T03:47:46.559Z,-0.28
2023-01-20T03:50:55.640Z,-0.20
2023-01-20T03:54:02.204Z,-0.26
2023-01-20T03:57:09.544Z,-0.38
2023-01-20T04:00:13.037Z,-0.42
2023-01-20T04:03:18.588Z,-0.46
2023-01-20T04:06:26.050Z,-0.57
2023-01-20T04:09:31.759Z,-0.62
2023-01-20T04:12:33.473Z,-0.70
2023-01-20T04:15:40.519Z,-0.80
2023-01-20T04:18:42.986Z,-0.84
2023-01-20T04:21:49.929Z,-0.93
2023-01-20T04:24:56.228Z,-0.98
2023-01-20T04:27:58.050Z,-0.93
2023-01-20T04:30:59.755Z,-1.03
2023-01-20T04:34:01.565Z,-1.03
2023-01-20T04:37:04.783Z,-1.02
2023-01-20T04:40:07.655Z,-1.15
2023-01-20T04:43:10.274Z,-1.14
2023-01-20T04:46:12.222Z,-1.19
2023-01-20T04:49:14.027Z,-1.32
2023-01-20T04:52:17.648Z,-1.32
2023-01-20T04:55:19.339Z,-1.41
2023-01-20T04:58:20.986Z,-1.43
2023-01-20T05:01:22.747Z,-1.45
2023-01-20T05:04:24.443Z,-1.59
2023-01-20T05:07:27.611Z,-1.63
2023-01-20T05:10:29.291Z,-1.55
2023-01-20T05:13:31.109Z,-1.62
2023-01-20T05:16:33.985Z,-1.54
2023-01-20T05:19:35.632Z,-1.67
2023-01-20T05:22:38.669Z,-1.65
2023-01-20T05:25:40.416Z,-1.79
2023-01-20T05:28:44.227Z,-1.80
2023-01-20T05:31:45.914Z,-1.84
2023-01-20T05:34:47.559Z,-1.75
2023-01-20T05:37:52.761Z,-1.80
2023-01-20T05:40:59.612Z,-1.85
2023-01-20T05:44:01.208Z,-1.94
2023-01-20T05:47:02.905Z,-1.84
2023-01-20T05:50:05.612Z,-1.92
2023-01-20T05:53:08.573Z,-1.92
2023-01-20T05:56:12.757Z,-1.97
2023-01-20T05:59:14.440Z,-2.09
2023-01-20T06:02:18.643Z,-1.99
2023-01-20T06:05:20.375Z,-2.09
2023-01-20T06:08:23.426Z,-2.11
2023-01-20T06:11:25.099Z,-2.18
2023-01-20T06:14:26.730Z,-2.21
2023-01-20T06:17:28.416Z,-2.07
2023-01-20T06:20:30.112Z,-2.16
2023-01-20T06:23:33.142Z,-2.16
2023-01-20T06:26:34.833Z,-2.27
2023-01-20T06:29:36.508Z,-2.17
2023-01-20T06:32:38.200Z,-2.22
2023-01-20T06:35:39.832Z,-2.12
2023-01-20T06:38:48.242Z,-2.19
2023-01-20T06:41:49.872Z,-2.25
2023-01-20T06:44:51.723Z,-2.27
2023-01-20T06:47:53.337Z,-2.25
2023-01-20T06:51:00.524Z,-2.32
2023-01-20T06:54:03.644Z,-2.33
2023-01-20T06:57:05.229Z,-2.16
2023-01-20T07:00:08.641Z,-2.32
2023-01-20T07:03:12.446Z,-2.26
2023-01-20T07:06:17.492Z,-2.33
2023-01-20T07:09:20.526Z,-2.32
2023-01-20T07:12:22.479Z,-2.30
2023-01-20T07:15:24.232Z,-2.26
2023-01-20T07:18:26.059Z,-2.38
2023-01-20T07:21:28.023Z,-2.41
2023-01-20T07:24:31.071Z,-2.34
2023-01-20T07:27:32.722Z,-2.33
2023-01-20T07:30:34.419Z,-2.41
2023-01-20T07:33:36.927Z,-2.26
2023-01-20T07:36:38.540Z,-2.31
2023-01-20T07:39:42.177Z,-2.32
2023-01-20T07:42:43.853Z,-2.28
2023-01-20T07:45:45.581Z,-2.14
2023-01-20T07:48:47.379Z,-2.11
2023-01-20T07:51:49.110Z,-2.09
2023-01-20T07:54:52.076Z,-2.13
2023-01-20T07:57:53.848Z,-2.13
2023-01-20T08:00:55.966Z,-2.13
2023-01-20T08:04:00.500Z,-1.94
2023-01-20T08:07:02.265Z,-1.98
2023-01-20T08:10:06.684Z,-1.80
2023-01-20T08:13:08.490Z,-1.77
2023-01-20T08:16:12.282Z,-1.76
2023-01-20T08:19:13.954Z,-1.71
2023-01-20T08:22:15.667Z,-1.51
2023-01-20T08:25:18.630Z,-1.38
2023-01-20T08:28:20.271Z,-1.13
2023-01-20T08:31:24.659Z,-0.91
2023-01-20T08:34:26.632Z,-0.69
2023-01-20T08:37:28.302Z,-0.41
2023-01-20T08:40:33.302Z,-0.12
2023-01-20T08:43:35.861Z,0.08
2023-01-20T08:46:40.550Z,0.10
2023-01-20T08:49:43.283Z,0.36
2023-01-20T08:52:44.953Z,0.40
2023-01-20T08:55:56.389Z,0.46
2023-01-20T08:58:58.806Z,0.44
2023-01-20T09:02:00.661Z,0.42
2023-01-20T09:05:03.373Z,0.54
2023-01-20T09:08:05.420Z,0.60
2023-01-20T09:11:10.639Z,0.66
2023-01-20T09:14:12.261Z,0.63
2023-01-20T09:17:14.953Z,0.57
2023-01-20T09:20:17.111Z,0.50
2023-01-20T09:23:18.788Z,0.56
2023-01-20T09:26:34.749Z,0.58
2023-01-20T09:29:37.515Z,0.71
2023-01-20T09:32:39.204Z,0.72
2023-01-20T09:35:40.859Z,0.73
2023-01-20T09:39:01.247Z,0.75
2023-01-20T09:42:35.097Z,0.59
2023-01-20T09:45:43.156Z,0.64
2023-01-20T09:49:11.857Z,0.62
2023-01-20T09:52:38.749Z,0.66
2023-01-20T09:55:46.737Z,0.87
2023-01-20T09:58:55.848Z,0.95
2023-01-20T10:02:01.547Z,0.68
2023-01-20T10:05:11.617Z,0.88
2023-01-20T10:08:19.147Z,1.02
2023-01-20T10:11:22.652Z,1.11
2023-01-20T10:14:35.044Z,1.05
2023-01-20T10:17:40.695Z,1.08
2023-01-20T10:20:45.586Z,1.11
2023-01-20T10:23:53.484Z,1.15
2023-01-20T10:27:00.987Z,1.08
2023-01-20T10:30:09.127Z,1.06
2023-01-20T10:33:12.613Z,1.40
2023-01-20T10:36:19.370Z,1.75
2023-01-20T10:39:28.532Z,1.53
2023-01-20T10:42:30.262Z,1.48
2023-01-20T10:45:49.080Z,1.47
2023-01-20T10:49:07.333Z,1.63
2023-01-20T10:52:23.906Z,1.66
2023-01-20T10:55:38.059Z,1.65
2023-01-20T10:58:45.076Z,1.68
2023-01-20T11:02:02.447Z,1.91
2023-01-20T11:05:17.600Z,1.79
2023-01-20T11:08:22.373Z,1.70
2023-01-20T11:11:25.605Z,1.73
2023-01-20T11:14:27.350Z,1.80
2023-01-20T11:17:30.390Z,1.64
2023-01-20T11:20:32.303Z,1.59
2023-01-20T11:23:40.056Z,1.50
2023-01-20T11:26:41.786Z,1.49
2023-01-20T11:29:48.101Z,1.81
2023-01-20T11:33:07.647Z,1.81
2023-01-20T11:36:18.987Z,1.68
2023-01-20T11:39:29.086Z,1.81
2023-01-20T11:42:44.960Z,2.48
2023-01-20T11:45:47.289Z,2.64
2023-01-20T11:49:02.134Z,2.94
2023-01-20T11:52:20.158Z,2.98
2023-01-20T11:55:24.009Z,3.18
2023-01-20T11:58:28.387Z,3.32
2023-01-20T12:01:49.496Z,3.35
2023-01-20T12:05:04.266Z,2.79
2023-01-20T12:08:14.219Z,2.56
2023-01-20T12:11:21.358Z,2.79
2023-01-20T12:14:28.615Z,2.80
2023-01-20T12:17:53.934Z,3.21
2023-01-20T12:21:01.594Z,3.17
2023-01-20T12:24:09.624Z,3.20
2023-01-20T12:27:20.614Z,3.96
2023-01-20T12:30:40.183Z,4.65
2023-01-20T12:33:45.485Z,4.02
2023-01-20T12:37:16.753Z,4.14
2023-01-20T12:40:32.570Z,4.26
2023-01-20T12:43:52.587Z,3.97
2023-01-20T12:47:04.213Z,4.16
2023-01-20T12:50:27.081Z,4.48
2023-01-20T12:53:46.690Z,4.86
2023-01-20T12:56:56.522Z,5.21
2023-01-20T13:00:22.206Z,4.56
2023-01-20T13:03:55.967Z,4.79
2023-01-20T13:07:13.944Z,4.52
2023-01-20T13:10:45.927Z,4.44
2023-01-20T13:14:06.562Z,3.81
2023-01-20T13:17:18.810Z,3.65
2023-01-20T13:20:23.259Z,3.72
2023-01-20T13:23:27.126Z,3.45
2023-01-20T13:26:31.785Z,3.64
2023-01-20T13:29:53.662Z,3.53
2023-01-20T13:33:03.121Z,3.35
2023-01-20T13:36:17.205Z,3.27
2023-01-20T13:39:40.835Z,3.20
2023-01-20T13:42:51.428Z,3.16
2023-01-20T13:46:32.978Z,3.07
2023-01-20T13:49:49.737Z,2.99
2023-01-20T13:53:23.692Z,2.96
2023-01-20T13:56:42.781Z,2.94
2023-01-20T13:59:45.779Z,2.95
2023-01-20T14:02:49.140Z,3.01
2023-01-20T14:05:52.873Z,3.02
2023-01-20T14:08:54.715Z,3.06
2023-01-20T14:11:57.641Z,3.18
2023-01-20T14:15:01.521Z,3.40
2023-01-20T14:18:04.287Z,3.48
2023-01-20T14:21:19.013Z,3.27
2023-01-20T14:24:28.353Z,3.46
2023-01-20T14:27:32.186Z,3.29
2023-01-20T14:30:35.387Z,3.17
2023-01-20T14:33:43.563Z,3.12
2023-01-20T14:36:46.248Z,3.19
2023-01-20T14:39:49.748Z,3.21
2023-01-20T14:42:56.130Z,3.15
2023-01-20T14:45:59.738Z,3.23
2023-01-20T14:49:03.483Z,3.15
2023-01-20T14:52:05.976Z,3.07
2023-01-20T14:55:29.385Z,3.04
2023-01-20T15:01:01.771Z,2.87
2023-01-20T15:04:05.884Z,2.69
2023-01-20T15:07:17.913Z,2.68
2023-01-20T15:10:19.694Z,2.65
2023-01-20T15:13:24.257Z,2.61
2023-01-20T15:16:28.928Z,2.60
2023-01-20T15:19:32.606Z,2.36
2023-01-20T15:22:34.277Z,2.28
2023-01-20T15:25:36.947Z,2.26
2023-01-20T15:28:43.097Z,2.35
2023-01-20T15:31:46.229Z,2.27
2023-01-20T15:34:47.933Z,2.16
2023-01-20T15:37:50.937Z,2.11
2023-01-20T15:40:55.725Z,2.08
2023-01-20T15:43:57.373Z,2.16
2023-01-20T15:47:00.541Z,2.12
2023-01-20T15:50:02.304Z,2.01
2023-01-20T15:53:06.323Z,2.01
2023-01-20T15:56:23.903Z,1.95
2023-01-20T15:59:25.863Z,1.92
2023-01-20T16:02:28.963Z,1.88
2023-01-20T16:05:30.799Z,1.91
2023-01-20T16:08:36.686Z,1.74
2023-01-20T16:11:38.318Z,1.70
2023-01-20T16:14:40.246Z,1.72
2023-01-20T16:17:43.489Z,1.78
2023-01-20T16:20:47.415Z,1.75
2023-01-20T16:23:49.099Z,1.68
2023-01-20T16:26:50.765Z,1.71
2023-01-20T16:29:53.132Z,1.77
2023-01-20T16:32:56.163Z,1.75
2023-01-20T16:35:57.842Z,1.78
2023-01-20T16:38:59.556Z,1.80
2023-01-20T16:42:01.304Z,1.79
2023-01-20T16:45:03.276Z,1.74
2023-01-20T16:48:09.092Z,1.83
2023-01-20T16:51:13.228Z,1.77
2023-01-20T16:54:15.091Z,1.92
2023-01-20T16:57:16.706Z,1.87
2023-01-20T17:00:19.914Z,1.93
2023-01-20T17:03:25.556Z,1.92
2023-01-20T17:06:29.920Z,1.98
2023-01-20T17:09:31.662Z,1.99
2023-01-20T17:12:33.354Z,2.07
2023-01-20T17:15:36.961Z,2.09
2023-01-20T17:18:45.637Z,2.18
2023-01-20T17:21:47.402Z,2.22
2023-01-20T17:24:49.066Z,2.26
2023-01-20T17:27:50.775Z,2.21
2023-01-20T17:30:52.435Z,2.20
2023-01-20T17:33:55.412Z,2.18
2023-01-20T17:36:57.097Z,2.11
2023-01-20T17:40:00.369Z,1.99
2023-01-20T17:43:02.251Z,1.87
2023-01-20T17:46:12.738Z,1.75
2023-01-20T17:49:16.057Z,1.68
2023-01-20T17:52:20.070Z,1.31
2023-01-20T17:55:21.799Z,0.97
2023-01-20T17:58:23.354Z,0.84
2023-01-20T18:01:27.056Z,0.73
2023-01-20T18:04:30.353Z,0.63
2023-01-20T18:07:32.177Z,0.55
2023-01-20T18:10:33.841Z,0.48
2023-01-20T18:13:36.072Z,0.46
2023-01-20T18:16:39.465Z,0.47
2023-01-20T18:19:42.685Z,0.50
2023-01-20T18:22:47.309Z,0.37
2023-01-20T18:25:53.220Z,0.42
2023-01-20T18:28:55.683Z,0.45
2023-01-20T18:31:58.173Z,0.47
2023-01-20T18:35:01.227Z,0.40
2023-01-20T18:38:02.925Z,0.38
2023-01-20T18:41:05.284Z,0.38
2023-01-20T18:44:07.367Z,0.36
2023-01-20T18:47:08.999Z,0.30
2023-01-20T18:50:12.296Z,0.37
2023-01-20T18:53:13.939Z,0.39
2023-01-20T18:56:15.858Z,0.40
2023-01-20T18:59:17.953Z,0.37
2023-01-20T19:02:19.744Z,0.36
2023-01-20T19:05:22.708Z,0.35
2023-01-20T19:11:45.272Z,0.37
2023-01-20T19:14:46.887Z,0.30
2023-01-20T19:17:50.447Z,0.33
2023-01-20T19:20:53.530Z,0.38
2023-01-20T19:23:56.985Z,0.25
2023-01-20T19:27:00.347Z,0.25
2023-01-20T19:30:02.144Z,0.25
2023-01-20T19:33:04.286Z,0.20
2023-01-20T19:36:10.511Z,0.27
2023-01-20T19:39:12.351Z,0.12
2023-01-20T19:42:14.338Z,0.21
2023-01-20T19:45:16.290Z,0.23
2023-01-20T19:48:18.035Z,-0.01
2023-01-20T19:51:21.354Z,-0.34
2023-01-20T19:54:24.387Z,-0.10
2023-01-20T19:57:27.227Z,-0.02
2023-01-20T20:00:29.032Z,0.04
2023-01-20T20:03:30.821Z,0.11
2023-01-20T20:06:34.997Z,0.12
2023-01-20T20:09:36.662Z,0.07
2023-01-20T20:12:38.321Z,0.04
2023-01-20T20:15:40.053Z,0.09
2023-01-20T20:18:41.790Z,0.10
2023-01-20T20:21:45.212Z,0.01
2023-01-20T20:24:47.079Z,0.12
2023-01-20T20:27:48.728Z,0.02
2023-01-20T20:30:50.877Z,-0.14
2023-01-20T20:33:52.592Z,-0.27
2023-01-20T20:36:55.606Z,0.04
2023-01-20T20:39:57.321Z,0.12
2023-01-20T20:42:59.002Z,0.07
2023-01-20T20:46:01.352Z,-0.09
2023-01-20T20:49:03.145Z,0.07
2023-01-20T20:52:06.236Z,-0.13
2023-01-20T20:55:10.244Z,0.04
2023-01-20T20:58:13.340Z,0.07
2023-01-20T21:01:18.651Z,0.18
2023-01-20T21:04:20.492Z,0.12
2023-01-20T21:07:23.557Z,0.08
2023-01-20T21:10:25.321Z,-0.15
2023-01-20T21:13:27.481Z,-0.04
2023-01-20T21:16:29.352Z,-0.39
2023-01-20T21:19:31.201Z,-0.17
2023-01-20T21:22:34.360Z,0.03
2023-01-20T21:25:35.983Z,0.08
2023-01-20T21:28:39.639Z,0.06
2023-01-20T21:31:41.381Z,0.00
2023-01-20T21:34:43.082Z,-0.14
2023-01-20T21:37:47.683Z,-0.05
2023-01-20T21:41:01.390Z,-0.05
2023-01-20T21:44:23.306Z,0.06
2023-01-20T21:47:25.368Z,0.06
2023-01-20T21:50:46.051Z,-0.03
2023-01-20T21:53:51.438Z,0.04
2023-01-20T21:56:52.944Z,-0.32
2023-01-20T21:59:55.035Z,-0.11
2023-01-20T22:02:56.690Z,-0.10
2023-01-20T22:05:58.411Z,-0.19
2023-01-20T22:09:01.668Z,-0.19
2023-01-20T22:12:03.565Z,-0.05
2023-01-20T22:15:06.642Z,-0.06
2023-01-20T22:49:47.270Z,-0.22
2023-01-20T22:52:49.336Z,-0.28
2023-01-20T22:56:00.651Z,-0.46
2023-01-20T22:59:05.330Z,-0.44
2023-01-20T23:02:07.155Z,-0.29
2023-01-20T23:05:09.417Z,-0.24
2023-01-20T23:08:11.333Z,-0.38
2023-01-20T23:11:15.628Z,-0.32
2023-01-20T23:14:38.673Z,-0.29
2023-01-20T23:17:40.518Z,-0.25
2023-01-20T23:20:42.302Z,-0.35
2023-01-20T23:23:44.490Z,-0.39
2023-01-20T23:26:46.187Z,-0.24
2023-01-20T23:29:49.323Z,-0.44
2023-01-20T23:32:51.459Z,-0.34
2023-01-20T23:35:53.239Z,-0.41
2023-01-20T23:38:56.599Z,-0.30
2023-01-20T23:41:58.417Z,-0.26
2023-01-20T23:45:01.449Z,-0.26
2023-01-20T23:48:03.174Z,-0.45
2023-01-20T23:51:06.686Z,-0.27
2023-01-20T23:54:11.209Z,-0.23
2023-01-20T23:57:13.155Z,-0.23
